Wind From: 11-12-2017 06:00 Until: 12-12-2017 06:00 warning for: Wind Level: Orange info button

Power and phone distribution networks may be disrupted for relatively long periods., Roofs and chimneys can be damaged. , Tree branches may break. , Vehicles can be deported. , Traffic may be disrupted, particularly on secondary roads in forest areas. Limit your trips. , Limit your speed in highway driving, especially if you drive a vehicle or hitch sensitive to wind. , Do not go for walks in forests or along the coast., In town, be vigilant against possible falling objects., Do not work on roofs and do not touch any electrical line fallen on the ground., Store or secure sensitive objects to wind or likely to be damaged., Always install power generators outside buildings. 


Meteo18 Weather Cam more information Meteo18 Weather Cam


Thunder radar more information blitzortung!


Rain radar more information rain snow radar


Visit our other weather sites:

Template documentation
and downloads

And another site



Weather Underground History page Text

Daily Summary for March 7, 2016 Units:  Metric    English   Both
« Previous Day
Next Day »
Daily Weekly Monthly Yearly Custom
  High: Low: Average:
Temperature: 5.8 °C -0.6 °C 2.3 °C
Dew Point: 2.9 °C -1.3 °C 0.8 °C
Humidity: 97 % 75 % 90 %
Wind Speed: 14.5 km/h 0.0 km/h 1.5 km/h
Wind Gust: 24.1 km/h - -
Wind:- - ENE
Pressure: 1012.1 hPa 1002.9 hPa -
Precipitation: 0.5 mm    
Historical Graphs
 
 
Tabular Data for March 7, 2016
Time Temperature Dew Point Pressure Wind Wind Speed Wind Gust Humidity Rainfall Rate (Hourly)
00:02 2.7 °C 1.4 °C 1004.6 hPa Calm   1.6 km/h 91 % 0.0 mm
00:07 2.7 °C 1.5 °C 1004.6 hPa SW 1.6 km/h 1.6 km/h 92 % 0.0 mm
00:12 2.5 °C 1.3 °C 1004.6 hPa Calm   1.6 km/h 92 % 0.0 mm
00:17 2.3 °C 1.1 °C 1004.6 hPa SW 1.6 km/h 1.6 km/h 92 % 0.0 mm
00:22 2.3 °C 1.3 °C 1004.3 hPa SW 1.6 km/h 1.6 km/h 93 % 0.0 mm
00:27 2.3 °C 1.3 °C 1004.3 hPa Calm   3.2 km/h 93 % 0.0 mm
00:32 2.4 °C 1.4 °C 1004.3 hPa Calm   3.2 km/h 93 % 0.0 mm
00:37 2.4 °C 1.4 °C 1004.3 hPa SW 1.6 km/h 3.2 km/h 93 % 0.0 mm
00:42 2.4 °C 1.4 °C 1004.3 hPa WSW 1.6 km/h 3.2 km/h 93 % 0.0 mm
00:47 2.3 °C 1.3 °C 1004.3 hPa Calm   3.2 km/h 93 % 0.0 mm
00:52 2.3 °C 1.4 °C 1004.3 hPa SW 1.6 km/h 3.2 km/h 94 % 0.0 mm
00:57 2.2 °C 1.3 °C 1004.3 hPa Calm   3.2 km/h 94 % 0.0 mm
01:02 2.2 °C 1.3 °C 1004.3 hPa Calm   3.2 km/h 94 % 0.0 mm
01:07 2.2 °C 1.3 °C 1004.3 hPa Calm   1.6 km/h 94 % 0.0 mm
01:12 2.2 °C 1.3 °C 1004.3 hPa Calm   1.6 km/h 94 % 0.0 mm
01:17 2.2 °C 1.3 °C 1004.3 hPa Calm   1.6 km/h 94 % 0.0 mm
01:22 2.2 °C 1.3 °C 1004.3 hPa Calm   1.6 km/h 94 % 0.0 mm
01:27 2.2 °C 1.3 °C 1004.3 hPa WSW 1.6 km/h 1.6 km/h 94 % 0.0 mm
01:32 2.2 °C 1.3 °C 1004.3 hPa Calm   1.6 km/h 94 % 0.0 mm
01:37 2.2 °C 1.3 °C 1003.9 hPa Calm   1.6 km/h 94 % 0.0 mm
01:42 2.2 °C 1.3 °C 1004.3 hPa Calm   1.6 km/h 94 % 0.0 mm
01:52 2.3 °C 1.4 °C 1003.9 hPa WSW 1.6 km/h 3.2 km/h 94 % 0.0 mm
01:57 2.3 °C 1.4 °C 1003.9 hPa Calm   3.2 km/h 94 % 0.0 mm
02:02 2.3 °C 1.3 °C 1003.9 hPa Calm   3.2 km/h 93 % 0.0 mm
02:07 2.3 °C 1.4 °C 1003.9 hPa Calm   1.6 km/h 94 % 0.0 mm
02:12 2.3 °C 1.4 °C 1003.9 hPa Calm   1.6 km/h 94 % 0.0 mm
02:17 2.3 °C 1.3 °C 1003.9 hPa Calm   3.2 km/h 93 % 0.0 mm
02:22 2.3 °C 1.3 °C 1003.9 hPa Calm   3.2 km/h 93 % 0.0 mm
02:27 2.3 °C 1.3 °C 1003.9 hPa Calm   3.2 km/h 93 % 0.0 mm
02:32 2.2 °C 1.2 °C 1003.9 hPa Calm   1.6 km/h 93 % 0.0 mm
02:37 2.2 °C 1.2 °C 1003.9 hPa Calm     93 % 0.0 mm
02:42 2.1 °C 1.1 °C 1003.9 hPa Calm     93 % 0.0 mm
02:47 1.9 °C 0.9 °C 1003.6 hPa Calm     93 % 0.0 mm
02:52 1.8 °C 0.8 °C 1003.6 hPa Calm     93 % 0.0 mm
02:57 1.7 °C 0.8 °C 1003.6 hPa Calm     94 % 0.0 mm
03:02 1.6 °C 0.7 °C 1003.6 hPa Calm     94 % 0.0 mm
03:07 1.5 °C 0.6 °C 1003.3 hPa Calm     94 % 0.0 mm
03:12 1.4 °C 0.5 °C 1003.3 hPa Calm     94 % 0.0 mm
03:17 1.3 °C 0.4 °C 1003.3 hPa Calm     94 % 0.0 mm
03:22 1.2 °C 0.3 °C 1003.6 hPa Calm     94 % 0.0 mm
03:27 1.2 °C 0.3 °C 1003.3 hPa Calm     94 % 0.0 mm
03:32 1.2 °C 0.5 °C 1003.3 hPa Calm     95 % 0.0 mm
03:37 1.2 °C 0.5 °C 1003.3 hPa Calm     95 % 0.0 mm
03:42 1.2 °C 0.5 °C 1003.3 hPa Calm     95 % 0.0 mm
03:47 1.2 °C 0.5 °C 1003.3 hPa Calm     95 % 0.0 mm
03:52 1.3 °C 0.6 °C 1003.3 hPa Calm     95 % 0.0 mm
03:57 1.4 °C 0.8 °C 1003.3 hPa Calm     96 % 0.0 mm
04:02 1.5 °C 0.9 °C 1003.3 hPa Calm   1.6 km/h 96 % 0.0 mm
04:12 1.6 °C 1.0 °C 1003.3 hPa Calm   1.6 km/h 96 % 0.0 mm
04:22 1.6 °C 1.0 °C 1002.9 hPa Calm     96 % 0.0 mm
04:27 1.6 °C 1.0 °C 1002.9 hPa Calm     96 % 0.0 mm
04:32 1.7 °C 1.1 °C 1002.9 hPa Calm     96 % 0.0 mm
04:37 1.7 °C 1.1 °C 1002.9 hPa Calm     96 % 0.0 mm
04:42 1.7 °C 1.1 °C 1002.9 hPa Calm   1.6 km/h 96 % 0.0 mm
04:47 1.6 °C 1.0 °C 1002.9 hPa Calm   1.6 km/h 96 % 0.0 mm
04:52 1.6 °C 1.0 °C 1002.9 hPa Calm     96 % 0.0 mm
04:57 1.6 °C 1.0 °C 1002.9 hPa Calm     96 % 0.0 mm
05:02 1.6 °C 1.0 °C 1002.9 hPa Calm     96 % 0.0 mm
05:07 1.6 °C 1.0 °C 1002.9 hPa Calm     96 % 0.0 mm
05:12 1.6 °C 1.0 °C 1003.3 hPa Calm     96 % 0.0 mm
05:17 1.5 °C 0.9 °C 1002.9 hPa Calm     96 % 0.0 mm
05:22 1.4 °C 0.8 °C 1002.9 hPa Calm     96 % 0.0 mm
05:32 1.4 °C 0.8 °C 1003.3 hPa Calm     96 % 0.0 mm
05:37 1.4 °C 0.8 °C 1003.3 hPa Calm     96 % 0.0 mm
05:42 1.4 °C 0.8 °C 1002.9 hPa Calm     96 % 0.0 mm
05:47 1.4 °C 0.8 °C 1003.3 hPa Calm     96 % 0.0 mm
05:52 1.4 °C 0.8 °C 1003.3 hPa Calm     96 % 0.0 mm
05:57 1.5 °C 0.9 °C 1003.3 hPa Calm     96 % 0.0 mm
06:02 1.5 °C 0.9 °C 1003.3 hPa Calm     96 % 0.0 mm
06:07 1.6 °C 1.0 °C 1003.3 hPa Calm     96 % 0.0 mm
06:12 1.6 °C 1.0 °C 1003.3 hPa Calm     96 % 0.0 mm
06:17 1.6 °C 1.0 °C 1003.3 hPa Calm     96 % 0.0 mm
06:22 1.6 °C 1.0 °C 1003.3 hPa Calm     96 % 0.0 mm
06:27 1.6 °C 1.0 °C 1003.3 hPa Calm     96 % 0.0 mm
06:32 1.6 °C 1.0 °C 1003.3 hPa Calm     96 % 0.0 mm
06:37 1.6 °C 1.0 °C 1003.3 hPa Calm     96 % 0.0 mm
06:42 1.6 °C 1.0 °C 1003.3 hPa Calm     96 % 0.0 mm
06:47 1.6 °C 1.0 °C 1003.6 hPa Calm     96 % 0.0 mm
06:52 1.6 °C 1.0 °C 1003.3 hPa Calm     96 % 0.0 mm
06:57 1.6 °C 1.0 °C 1003.3 hPa Calm     96 % 0.0 mm
07:02 1.6 °C 1.0 °C 1003.6 hPa Calm     96 % 0.0 mm
07:07 1.6 °C 1.0 °C 1003.6 hPa Calm     96 % 0.0 mm
07:12 1.7 °C 1.1 °C 1003.6 hPa Calm     96 % 0.0 mm
07:17 1.7 °C 1.1 °C 1003.6 hPa Calm     96 % 0.0 mm
07:22 1.6 °C 1.0 °C 1003.6 hPa Calm     96 % 0.0 mm
07:27 1.7 °C 1.1 °C 1003.9 hPa Calm     96 % 0.0 mm
07:32 1.7 °C 1.1 °C 1003.9 hPa Calm     96 % 0.0 mm
07:37 1.7 °C 1.1 °C 1003.9 hPa Calm     96 % 0.0 mm
07:42 1.7 °C 1.3 °C 1003.9 hPa Calm     97 % 0.0 mm
07:47 1.7 °C 1.3 °C 1003.9 hPa Calm     97 % 0.0 mm
07:52 1.7 °C 1.3 °C 1003.9 hPa Calm     97 % 0.0 mm
07:57 1.8 °C 1.4 °C 1003.9 hPa Calm   1.6 km/h 97 % 0.0 mm
08:02 1.9 °C 1.5 °C 1003.9 hPa Calm   1.6 km/h 97 % 0.0 mm
08:07 1.9 °C 1.3 °C 1003.9 hPa Calm   1.6 km/h 96 % 0.0 mm
08:12 2.0 °C 1.4 °C 1003.9 hPa Calm   3.2 km/h 96 % 0.0 mm
08:17 2.1 °C 1.5 °C 1003.9 hPa Calm   3.2 km/h 96 % 0.0 mm
08:22 2.1 °C 1.5 °C 1003.9 hPa Calm   3.2 km/h 96 % 0.0 mm
08:27 2.2 °C 1.6 °C 1003.9 hPa Calm   1.6 km/h 96 % 0.0 mm
08:32 2.3 °C 1.7 °C 1004.3 hPa Calm   1.6 km/h 96 % 0.0 mm
08:37 2.4 °C 1.8 °C 1004.3 hPa Calm   1.6 km/h 96 % 0.0 mm
08:42 2.4 °C 1.8 °C 1004.3 hPa Calm   1.6 km/h 96 % 0.0 mm
08:47 2.5 °C 1.8 °C 1004.3 hPa Calm   1.6 km/h 95 % 0.0 mm
08:52 2.6 °C 1.9 °C 1004.3 hPa Calm   1.6 km/h 95 % 0.0 mm
08:57 2.7 °C 2.0 °C 1004.3 hPa Calm   1.6 km/h 95 % 0.0 mm
09:02 2.7 °C 2.0 °C 1004.6 hPa Calm   1.6 km/h 95 % 0.0 mm
09:07 2.8 °C 2.1 °C 1004.6 hPa Calm   1.6 km/h 95 % 0.0 mm
09:12 3.0 °C 2.3 °C 1004.6 hPa Calm   1.6 km/h 95 % 0.0 mm
09:17 3.1 °C 2.4 °C 1004.6 hPa Calm   1.6 km/h 95 % 0.0 mm
09:22 3.2 °C 2.2 °C 1004.6 hPa Calm   1.6 km/h 93 % 0.0 mm
09:27 3.2 °C 2.0 °C 1004.6 hPa Calm   4.8 km/h 92 % 0.0 mm
09:32 3.4 °C 2.2 °C 1004.6 hPa Calm   4.8 km/h 92 % 0.0 mm
09:37 3.6 °C 2.3 °C 1004.6 hPa Calm   8.0 km/h 91 % 0.0 mm
09:42 3.8 °C 2.3 °C 1004.6 hPa ENE 3.2 km/h 8.0 km/h 90 % 0.0 mm
09:47 3.8 °C 2.2 °C 1004.6 hPa Calm   8.0 km/h 89 % 0.0 mm
09:52 3.9 °C 2.4 °C 1004.6 hPa Calm   8.0 km/h 90 % 0.0 mm
09:57 4.2 °C 2.9 °C 1004.6 hPa Calm   8.0 km/h 91 % 0.0 mm
10:02 4.4 °C 2.7 °C 1004.6 hPa Calm   6.4 km/h 89 % 0.0 mm
10:07 4.4 °C 2.4 °C 1005.0 hPa Calm   4.8 km/h 87 % 0.0 mm
10:12 4.3 °C 2.2 °C 1005.0 hPa Calm   9.7 km/h 86 % 0.0 mm
10:22 4.4 °C 2.4 °C 1005.0 hPa Calm   9.7 km/h 87 % 0.0 mm
10:27 4.3 °C 2.0 °C 1005.0 hPa North 6.4 km/h 9.7 km/h 85 % 0.0 mm
10:32 4.3 °C 2.2 °C 1005.0 hPa Calm   9.7 km/h 86 % 0.0 mm
10:37 4.3 °C 2.0 °C 1005.0 hPa Calm   9.7 km/h 85 % 0.0 mm
10:42 4.4 °C 2.1 °C 1004.6 hPa Calm   6.4 km/h 85 % 0.0 mm
10:47 4.4 °C 1.9 °C 1005.0 hPa East 1.6 km/h 4.8 km/h 84 % 0.0 mm
10:52 4.5 °C 2.2 °C 1005.0 hPa Calm   9.7 km/h 85 % 0.0 mm
10:57 4.6 °C 2.5 °C 1005.0 hPa ENE 1.6 km/h 11.3 km/h 86 % 0.0 mm
11:02 4.7 °C 2.4 °C 1005.0 hPa ESE 1.6 km/h 11.3 km/h 85 % 0.0 mm
11:07 4.9 °C 2.4 °C 1005.0 hPa NE 1.6 km/h 11.3 km/h 84 % 0.0 mm
11:12 5.2 °C 2.5 °C 1005.0 hPa ENE 1.6 km/h 9.7 km/h 83 % 0.0 mm
11:17 5.1 °C 2.3 °C 1005.0 hPa ESE 1.6 km/h 9.7 km/h 82 % 0.0 mm
11:22 5.1 °C 2.3 °C 1005.0 hPa NNE 6.4 km/h 14.5 km/h 82 % 0.0 mm
11:27 4.9 °C 2.1 °C 1005.0 hPa NE 1.6 km/h 14.5 km/h 82 % 0.0 mm
11:32 4.9 °C 2.3 °C 1005.0 hPa NE 6.4 km/h 14.5 km/h 83 % 0.0 mm
11:37 4.7 °C 1.5 °C 1005.0 hPa ENE 6.4 km/h 14.5 km/h 80 % 0.0 mm
11:42 4.6 °C 1.4 °C 1005.0 hPa SE 1.6 km/h 12.9 km/h 80 % 0.0 mm
11:47 4.6 °C 1.6 °C 1005.0 hPa NE 1.6 km/h 12.9 km/h 81 % 0.0 mm
11:52 4.8 °C 2.0 °C 1005.0 hPa NE 6.4 km/h 12.9 km/h 82 % 0.0 mm
11:57 4.9 °C 1.7 °C 1005.0 hPa ENE 3.2 km/h 16.1 km/h 80 % 0.0 mm
12:02 5.1 °C 2.1 °C 1005.0 hPa ENE 3.2 km/h 16.1 km/h 81 % 0.0 mm
12:07 5.3 °C 2.1 °C 1005.0 hPa NE 4.8 km/h 16.1 km/h 80 % 0.0 mm
12:12 5.3 °C 1.6 °C 1005.0 hPa NE 9.7 km/h 9.7 km/h 77 % 0.0 mm
12:17 5.4 °C 2.1 °C 1005.0 hPa ENE 1.6 km/h 11.3 km/h 79 % 0.0 mm
12:22 5.7 °C 2.5 °C 1005.0 hPa Calm   11.3 km/h 80 % 0.0 mm
12:27 5.8 °C 1.9 °C 1005.0 hPa NE 3.2 km/h 11.3 km/h 76 % 0.0 mm
12:32 5.7 °C 2.0 °C 1005.3 hPa NNE 6.4 km/h 8.0 km/h 77 % 0.0 mm
12:42 5.5 °C 2.0 °C 1005.0 hPa NNE 9.7 km/h 12.9 km/h 78 % 0.0 mm
12:47 5.2 °C 1.7 °C 1005.3 hPa East 6.4 km/h 12.9 km/h 78 % 0.0 mm
12:52 5.1 °C 1.6 °C 1005.3 hPa Calm   14.5 km/h 78 % 0.0 mm
12:57 4.9 °C 1.7 °C 1005.0 hPa ENE 3.2 km/h 14.5 km/h 80 % 0.0 mm
13:02 5.0 °C 1.8 °C 1005.0 hPa ENE 3.2 km/h 12.9 km/h 80 % 0.0 mm
13:07 5.2 °C 1.7 °C 1005.0 hPa ENE 8.0 km/h 9.7 km/h 78 % 0.0 mm
13:12 5.3 °C 1.6 °C 1005.0 hPa NE 8.0 km/h 14.5 km/h 77 % 0.0 mm
13:17 5.5 °C 1.8 °C 1005.3 hPa Calm   14.5 km/h 77 % 0.0 mm
13:22 5.5 °C 1.4 °C 1005.0 hPa NE 4.8 km/h 14.5 km/h 75 % 0.0 mm
13:27 5.3 °C 1.2 °C 1005.0 hPa NE 8.0 km/h 12.9 km/h 75 % 0.0 mm
13:32 5.4 °C 1.5 °C 1005.0 hPa SSE 1.6 km/h 12.9 km/h 76 % 0.0 mm
13:37 5.3 °C 1.4 °C 1005.3 hPa NE 4.8 km/h 12.9 km/h 76 % 0.0 mm
13:42 4.9 °C 1.2 °C 1005.3 hPa NE 8.0 km/h 14.5 km/h 77 % 0.0 mm
13:47 4.3 °C 1.2 °C 1005.6 hPa ENE 8.0 km/h 14.5 km/h 80 % 0.0 mm
13:52 3.1 °C 0.8 °C 1005.6 hPa ENE 3.2 km/h 14.5 km/h 85 % 0.0 mm
13:57 2.7 °C 0.9 °C 1005.6 hPa NE 1.6 km/h 14.5 km/h 88 % 0.3 mm
14:02 2.7 °C 1.2 °C 1005.6 hPa Calm   14.5 km/h 90 % 0.3 mm
14:07 2.9 °C 1.6 °C 1005.6 hPa Calm   8.0 km/h 91 % 0.3 mm
14:12 3.1 °C 1.8 °C 1005.6 hPa East 1.6 km/h 3.2 km/h 91 % 0.3 mm
14:17 3.2 °C 1.9 °C 1005.6 hPa Calm   1.6 km/h 91 % 0.3 mm
14:22 3.4 °C 1.8 °C 1005.6 hPa Calm   4.8 km/h 89 % 0.3 mm
14:27 3.8 °C 2.3 °C 1005.6 hPa Calm   4.8 km/h 90 % 0.3 mm
14:32 4.1 °C 1.5 °C 1005.6 hPa ESE 1.6 km/h 4.8 km/h 83 % 0.3 mm
14:37 4.2 °C 1.2 °C 1005.6 hPa ENE 1.6 km/h 12.9 km/h 81 % 0.3 mm
14:42 4.1 °C 1.0 °C 1005.6 hPa NE 11.3 km/h 12.9 km/h 80 % 0.3 mm
14:47 3.4 °C 1.0 °C 1006.0 hPa NE 8.0 km/h 20.9 km/h 84 % 0.5 mm
14:52 3.2 °C 1.4 °C 1006.0 hPa ENE 8.0 km/h 20.9 km/h 88 % 0.5 mm
14:57 2.9 °C 1.1 °C 1006.0 hPa ENE 8.0 km/h 20.9 km/h 88 % 0.3 mm
15:02 2.6 °C 1.0 °C 1006.0 hPa ENE 9.7 km/h 19.3 km/h 89 % 0.3 mm
15:07 2.4 °C 0.6 °C 1005.6 hPa NE 4.8 km/h 19.3 km/h 88 % 0.3 mm
15:12 2.4 °C 0.6 °C 1005.6 hPa Calm   19.3 km/h 88 % 0.3 mm
15:17 2.6 °C 0.5 °C 1006.0 hPa NE 1.6 km/h 14.5 km/h 86 % 0.3 mm
15:22 2.6 °C 0.3 °C 1005.6 hPa ENE 8.0 km/h 12.9 km/h 85 % 0.3 mm
15:27 2.7 °C 0.3 °C 1005.6 hPa Calm   12.9 km/h 84 % 0.3 mm
15:32 2.8 °C 0.4 °C 1005.6 hPa NE 1.6 km/h 12.9 km/h 84 % 0.3 mm
15:37 2.9 °C 0.5 °C 1005.6 hPa SE 1.6 km/h 9.7 km/h 84 % 0.3 mm
15:42 2.9 °C 0.5 °C 1005.6 hPa ENE 1.6 km/h 9.7 km/h 84 % 0.0 mm
15:47 3.0 °C 0.4 °C 1005.6 hPa NE 8.0 km/h 9.7 km/h 83 % 0.0 mm
15:52 3.1 °C 0.5 °C 1005.6 hPa NE 4.8 km/h 12.9 km/h 83 % 0.0 mm
15:57 3.1 °C 0.3 °C 1005.6 hPa Calm   12.9 km/h 82 % 0.0 mm
16:02 3.2 °C 0.6 °C 1006.0 hPa Calm   12.9 km/h 83 % 0.0 mm
16:07 3.3 °C 0.5 °C 1005.6 hPa ENE 3.2 km/h 12.9 km/h 82 % 0.0 mm
16:12 3.4 °C 0.6 °C 1006.0 hPa East 3.2 km/h 11.3 km/h 82 % 0.0 mm
16:17 3.3 °C 0.4 °C 1006.0 hPa ENE 4.8 km/h 11.3 km/h 81 % 0.0 mm
16:22 3.3 °C 0.4 °C 1006.0 hPa NE 6.4 km/h 11.3 km/h 81 % 0.0 mm
16:27 3.6 °C 0.5 °C 1006.0 hPa NE 6.4 km/h 11.3 km/h 80 % 0.0 mm
16:32 3.8 °C 0.7 °C 1006.0 hPa ENE 4.8 km/h 14.5 km/h 80 % 0.0 mm
16:37 3.9 °C 0.9 °C 1006.3 hPa NE 6.4 km/h 14.5 km/h 81 % 0.0 mm
16:42 4.1 °C 1.0 °C 1006.3 hPa ENE 6.4 km/h 14.5 km/h 80 % 0.0 mm
16:47 4.2 °C 0.7 °C 1006.3 hPa East 3.2 km/h 19.3 km/h 78 % 0.0 mm
16:52 4.2 °C 0.7 °C 1006.3 hPa NE 11.3 km/h 19.3 km/h 78 % 0.0 mm
16:57 4.3 °C 0.8 °C 1006.3 hPa NE 3.2 km/h 19.3 km/h 78 % 0.0 mm
17:02 4.3 °C 1.0 °C 1006.7 hPa ENE 3.2 km/h 19.3 km/h 79 % 0.0 mm
17:07 4.3 °C 1.0 °C 1006.7 hPa Calm   19.3 km/h 79 % 0.0 mm
17:12 4.1 °C 0.6 °C 1006.7 hPa Calm   12.9 km/h 78 % 0.0 mm
17:17 3.7 °C 0.7 °C 1006.7 hPa Calm   9.7 km/h 81 % 0.0 mm
17:22 3.6 °C 0.8 °C 1006.7 hPa Calm   9.7 km/h 82 % 0.0 mm
17:27 3.3 °C 0.7 °C 1007.0 hPa NE 1.6 km/h 9.7 km/h 83 % 0.0 mm
17:32 3.2 °C 0.8 °C 1007.0 hPa Calm   9.7 km/h 84 % 0.0 mm
17:37 3.4 °C 1.0 °C 1007.0 hPa Calm   9.7 km/h 84 % 0.0 mm
17:42 3.5 °C 1.1 °C 1007.0 hPa Calm   4.8 km/h 84 % 0.0 mm
17:47 3.5 °C 0.9 °C 1007.0 hPa Calm   8.0 km/h 83 % 0.0 mm
17:52 3.5 °C 1.1 °C 1007.3 hPa NE 9.7 km/h 9.7 km/h 84 % 0.0 mm
17:57 3.3 °C 0.7 °C 1007.3 hPa NE 1.6 km/h 9.7 km/h 83 % 0.0 mm
18:02 3.0 °C 0.7 °C 1007.3 hPa ESE 1.6 km/h 9.7 km/h 85 % 0.0 mm
18:07 2.9 °C 1.0 °C 1007.7 hPa NE 3.2 km/h 11.3 km/h 87 % 0.0 mm
18:12 2.7 °C 0.8 °C 1007.7 hPa Calm   12.9 km/h 87 % 0.0 mm
18:17 2.3 °C 0.4 °C 1007.7 hPa East 3.2 km/h 12.9 km/h 87 % 0.0 mm
18:22 2.0 °C 0.1 °C 1008.0 hPa East 4.8 km/h 11.3 km/h 87 % 0.0 mm
18:27 1.8 °C -0.1 °C 1008.0 hPa NE 1.6 km/h 6.4 km/h 87 % 0.0 mm
18:32 1.7 °C -0.1 °C 1008.0 hPa NE 1.6 km/h 6.4 km/h 88 % 0.0 mm
18:37 1.6 °C -0.2 °C 1008.0 hPa ENE 4.8 km/h 8.0 km/h 88 % 0.0 mm
18:42 1.7 °C -0.1 °C 1008.4 hPa NE 4.8 km/h 8.0 km/h 88 % 0.0 mm
18:47 1.7 °C -0.1 °C 1008.4 hPa NE 3.2 km/h 8.0 km/h 88 % 0.0 mm
18:52 1.8 °C -0.1 °C 1008.4 hPa ENE 6.4 km/h 11.3 km/h 87 % 0.0 mm
18:57 1.9 °C 0.0 °C 1008.7 hPa NE 8.0 km/h 11.3 km/h 87 % 0.0 mm
19:02 1.7 °C -0.1 °C 1009.0 hPa ESE 8.0 km/h 17.7 km/h 88 % 0.0 mm
19:07 1.1 °C -0.2 °C 1009.4 hPa East 3.2 km/h 24.1 km/h 91 % 0.0 mm
19:12 0.8 °C -0.2 °C 1009.0 hPa East 12.9 km/h 24.1 km/h 93 % 0.0 mm
19:17 0.7 °C -0.3 °C 1009.0 hPa NE 14.5 km/h 17.7 km/h 93 % 0.0 mm
19:22 0.8 °C -0.2 °C 1009.0 hPa NE 3.2 km/h 17.7 km/h 93 % 0.0 mm
19:27 0.8 °C -0.2 °C 1009.0 hPa NE 1.6 km/h 17.7 km/h 93 % 0.0 mm
19:32 0.8 °C -0.2 °C 1009.0 hPa NE 1.6 km/h 17.7 km/h 93 % 0.0 mm
19:37 0.7 °C -0.3 °C 1009.4 hPa Calm   8.0 km/h 93 % 0.0 mm
19:42 0.7 °C -0.2 °C 1009.4 hPa Calm   3.2 km/h 94 % 0.0 mm
19:47 0.6 °C -0.3 °C 1009.4 hPa ENE 1.6 km/h 6.4 km/h 94 % 0.0 mm
19:52 0.6 °C -0.3 °C 1009.4 hPa Calm   6.4 km/h 94 % 0.0 mm
19:57 0.5 °C -0.4 °C 1009.4 hPa Calm   6.4 km/h 94 % 0.0 mm
20:02 0.5 °C -0.4 °C 1009.4 hPa Calm   3.2 km/h 94 % 0.0 mm
20:07 0.4 °C -0.3 °C 1009.7 hPa Calm   3.2 km/h 95 % 0.0 mm
20:12 0.4 °C -0.3 °C 1009.7 hPa Calm   3.2 km/h 95 % 0.0 mm
20:17 0.4 °C -0.3 °C 1009.7 hPa Calm   3.2 km/h 95 % 0.0 mm
20:22 0.3 °C -0.4 °C 1009.7 hPa Calm   3.2 km/h 95 % 0.0 mm
20:27 0.2 °C -0.5 °C 1010.0 hPa Calm   1.6 km/h 95 % 0.0 mm
20:32 0.2 °C -0.5 °C 1010.0 hPa Calm   1.6 km/h 95 % 0.0 mm
20:37 0.1 °C -0.6 °C 1010.0 hPa Calm   1.6 km/h 95 % 0.0 mm
20:42 -0.1 °C -0.8 °C 1010.0 hPa Calm   1.6 km/h 95 % 0.0 mm
20:47 -0.2 °C -0.9 °C 1010.0 hPa Calm     95 % 0.0 mm
20:52 -0.3 °C -1.0 °C 1010.4 hPa Calm     95 % 0.0 mm
21:02 -0.5 °C -1.2 °C 1010.4 hPa Calm     95 % 0.0 mm
21:07 -0.6 °C -1.3 °C 1010.4 hPa Calm     95 % 0.0 mm
21:12 -0.6 °C -1.3 °C 1010.4 hPa Calm     95 % 0.0 mm
21:17 -0.6 °C -1.3 °C 1010.7 hPa Calm     95 % 0.0 mm
21:22 -0.6 °C -1.2 °C 1010.7 hPa Calm     96 % 0.0 mm
21:27 -0.6 °C -1.2 °C 1010.7 hPa Calm     96 % 0.0 mm
21:32 -0.6 °C -1.2 °C 1010.7 hPa Calm   1.6 km/h 96 % 0.0 mm
21:37 -0.6 °C -1.2 °C 1011.1 hPa Calm   1.6 km/h 96 % 0.0 mm
21:42 -0.6 °C -1.2 °C 1011.1 hPa Calm   1.6 km/h 96 % 0.0 mm
21:47 -0.6 °C -1.2 °C 1011.1 hPa Calm     96 % 0.0 mm
21:52 -0.5 °C -1.1 °C 1011.1 hPa Calm     96 % 0.0 mm
21:57 -0.4 °C -1.0 °C 1011.1 hPa Calm     96 % 0.0 mm
22:02 -0.4 °C -1.0 °C 1011.1 hPa Calm     96 % 0.0 mm
22:07 -0.3 °C -0.9 °C 1011.1 hPa Calm     96 % 0.0 mm
22:12 -0.3 °C -0.9 °C 1011.1 hPa Calm   1.6 km/h 96 % 0.0 mm
22:17 -0.3 °C -0.9 °C 1011.1 hPa Calm   1.6 km/h 96 % 0.0 mm
22:22 -0.3 °C -0.9 °C 1011.1 hPa Calm     96 % 0.0 mm
22:27 -0.3 °C -0.9 °C 1011.4 hPa Calm     96 % 0.0 mm
22:32 -0.2 °C -0.8 °C 1011.4 hPa Calm   1.6 km/h 96 % 0.0 mm
22:37 -0.2 °C -0.9 °C 1011.4 hPa Calm   1.6 km/h 95 % 0.0 mm
22:42 -0.4 °C -1.1 °C 1011.4 hPa Calm   1.6 km/h 95 % 0.0 mm
22:47 -0.4 °C -1.1 °C 1011.4 hPa Calm   1.6 km/h 95 % 0.0 mm
22:52 -0.3 °C -1.0 °C 1011.7 hPa ENE 1.6 km/h 1.6 km/h 95 % 0.0 mm
22:57 -0.2 °C -1.0 °C 1011.7 hPa Calm   3.2 km/h 94 % 0.0 mm
23:02 0.0 °C -1.0 °C 1011.7 hPa ENE 1.6 km/h 4.8 km/h 93 % 0.0 mm
23:07 0.2 °C -0.9 °C 1011.7 hPa Calm   4.8 km/h 92 % 0.0 mm
23:12 0.2 °C -1.1 °C 1011.7 hPa Calm   6.4 km/h 91 % 0.0 mm
23:17 0.2 °C -1.1 °C 1011.7 hPa Calm   6.4 km/h 91 % 0.0 mm
23:22 0.2 °C -1.1 °C 1011.7 hPa ENE 1.6 km/h 9.7 km/h 91 % 0.0 mm
23:27 0.2 °C -1.1 °C 1011.7 hPa Calm   9.7 km/h 91 % 0.0 mm
23:32 0.2 °C -1.1 °C 1011.7 hPa Calm   6.4 km/h 91 % 0.0 mm
23:37 0.2 °C -1.1 °C 1011.7 hPa Calm   3.2 km/h 91 % 0.0 mm
23:42 0.2 °C -0.9 °C 1011.7 hPa Calm   3.2 km/h 92 % 0.0 mm
23:47 0.2 °C -0.9 °C 1012.1 hPa Calm   3.2 km/h 92 % 0.0 mm
23:52 0.2 °C -0.9 °C 1012.1 hPa Calm   3.2 km/h 92 % 0.0 mm
23:57 0.2 °C -0.9 °C 1012.1 hPa Calm   3.2 km/h 92 % 0.0 mm
Meteo18
Compliments of Weather Underground - 4 mb

Script developed by  Jim McMurry - jmcmurry@mwt.net Adapted for the template by  Wim van der Kuil - Leuven-Template.eu

You find our weather info also at:

European Weather Network

Weather Underground

Equipment we use:

Weather-station
Davis Vue

Weather-program
Meteohub

Weather-server
Raspberry PI 2 B+

Provider
1 and 1

Davis Vue

Meteohub

Raspberry PI 2 B+

1 and 1